sensor_id;sensor_type;location;lat;lon;timestamp;P1;durP1;ratioP1;P2;durP2;ratioP2
4448;SDS011;2237;51.870;6.160;2024-01-11T00:00:51;27.85;;;8.75;;
4448;SDS011;2237;51.870;6.160;2024-01-11T00:03:17;28.02;;;9.40;;
4448;SDS011;2237;51.870;6.160;2024-01-11T00:05:44;19.98;;;7.93;;
4448;SDS011;2237;51.870;6.160;2024-01-11T00:08:11;22.20;;;8.07;;
4448;SDS011;2237;51.870;6.160;2024-01-11T00:10:37;25.00;;;8.73;;
4448;SDS011;2237;51.870;6.160;2024-01-11T00:13:03;26.45;;;9.27;;
4448;SDS011;2237;51.870;6.160;2024-01-11T00:15:30;26.25;;;9.18;;
4448;SDS011;2237;51.870;6.160;2024-01-11T00:17:56;24.23;;;7.95;;
4448;SDS011;2237;51.870;6.160;2024-01-11T00:20:23;30.52;;;9.63;;
4448;SDS011;2237;51.870;6.160;2024-01-11T00:22:49;20.65;;;8.55;;
4448;SDS011;2237;51.870;6.160;2024-01-11T00:25:16;23.05;;;9.02;;
4448;SDS011;2237;51.870;6.160;2024-01-11T00:27:42;23.23;;;8.75;;
4448;SDS011;2237;51.870;6.160;2024-01-11T00:30:08;29.92;;;9.60;;
4448;SDS011;2237;51.870;6.160;2024-01-11T00:32:35;28.13;;;8.35;;
4448;SDS011;2237;51.870;6.160;2024-01-11T00:35:01;25.00;;;8.70;;
4448;SDS011;2237;51.870;6.160;2024-01-11T00:37:28;24.95;;;8.68;;
4448;SDS011;2237;51.870;6.160;2024-01-11T00:39:54;24.00;;;8.32;;
4448;SDS011;2237;51.870;6.160;2024-01-11T00:42:20;21.70;;;8.10;;
4448;SDS011;2237;51.870;6.160;2024-01-11T00:44:47;26.90;;;8.13;;
4448;SDS011;2237;51.870;6.160;2024-01-11T00:47:13;22.83;;;8.70;;
4448;SDS011;2237;51.870;6.160;2024-01-11T00:49:39;24.73;;;8.27;;
4448;SDS011;2237;51.870;6.160;2024-01-11T00:52:06;26.92;;;8.70;;
4448;SDS011;2237;51.870;6.160;2024-01-11T00:54:32;20.95;;;8.27;;
4448;SDS011;2237;51.870;6.160;2024-01-11T00:56:59;22.95;;;8.98;;
4448;SDS011;2237;51.870;6.160;2024-01-11T00:59:25;24.10;;;8.75;;
4448;SDS011;2237;51.870;6.160;2024-01-11T01:01:51;22.73;;;7.82;;
4448;SDS011;2237;51.870;6.160;2024-01-11T01:04:18;22.10;;;8.45;;
4448;SDS011;2237;51.870;6.160;2024-01-11T01:06:44;24.20;;;8.15;;
4448;SDS011;2237;51.870;6.160;2024-01-11T01:09:11;20.52;;;7.68;;
4448;SDS011;2237;51.870;6.160;2024-01-11T01:11:37;25.83;;;8.85;;
4448;SDS011;2237;51.870;6.160;2024-01-11T01:14:04;23.02;;;7.70;;
4448;SDS011;2237;51.870;6.160;2024-01-11T01:16:31;23.65;;;8.23;;
4448;SDS011;2237;51.870;6.160;2024-01-11T01:18:57;25.58;;;8.38;;
4448;SDS011;2237;51.870;6.160;2024-01-11T01:21:24;24.55;;;8.23;;
4448;SDS011;2237;51.870;6.160;2024-01-11T01:23:50;23.88;;;8.13;;
4448;SDS011;2237;51.870;6.160;2024-01-11T01:26:16;27.50;;;8.57;;
4448;SDS011;2237;51.870;6.160;2024-01-11T01:28:43;23.80;;;8.35;;
4448;SDS011;2237;51.870;6.160;2024-01-11T01:31:09;25.75;;;8.73;;
4448;SDS011;2237;51.870;6.160;2024-01-11T01:33:35;22.70;;;7.80;;
4448;SDS011;2237;51.870;6.160;2024-01-11T01:36:02;21.80;;;8.13;;
4448;SDS011;2237;51.870;6.160;2024-01-11T01:38:29;24.67;;;8.18;;
4448;SDS011;2237;51.870;6.160;2024-01-11T01:40:56;24.77;;;8.10;;
4448;SDS011;2237;51.870;6.160;2024-01-11T01:43:23;26.95;;;9.15;;
4448;SDS011;2237;51.870;6.160;2024-01-11T01:45:49;21.77;;;8.25;;
4448;SDS011;2237;51.870;6.160;2024-01-11T01:48:15;26.55;;;8.52;;
4448;SDS011;2237;51.870;6.160;2024-01-11T01:50:42;20.48;;;7.85;;
4448;SDS011;2237;51.870;6.160;2024-01-11T01:53:11;23.42;;;8.45;;
4448;SDS011;2237;51.870;6.160;2024-01-11T01:55:38;22.00;;;8.02;;
4448;SDS011;2237;51.870;6.160;2024-01-11T01:58:04;17.13;;;7.50;;
4448;SDS011;2237;51.870;6.160;2024-01-11T02:00:30;27.17;;;8.38;;
4448;SDS011;2237;51.870;6.160;2024-01-11T02:02:57;22.08;;;8.02;;
4448;SDS011;2237;51.870;6.160;2024-01-11T02:05:24;27.35;;;8.60;;
4448;SDS011;2237;51.870;6.160;2024-01-11T02:07:51;20.58;;;7.10;;
4448;SDS011;2237;51.870;6.160;2024-01-11T02:10:17;20.58;;;7.68;;
4448;SDS011;2237;51.870;6.160;2024-01-11T02:12:44;27.27;;;7.60;;
4448;SDS011;2237;51.870;6.160;2024-01-11T02:15:11;21.85;;;7.90;;
4448;SDS011;2237;51.870;6.160;2024-01-11T02:17:39;17.08;;;7.32;;
4448;SDS011;2237;51.870;6.160;2024-01-11T02:20:06;22.92;;;7.65;;
4448;SDS011;2237;51.870;6.160;2024-01-11T02:22:34;21.73;;;7.90;;
4448;SDS011;2237;51.870;6.160;2024-01-11T02:25:01;21.75;;;7.60;;
4448;SDS011;2237;51.870;6.160;2024-01-11T02:27:28;21.52;;;7.38;;
4448;SDS011;2237;51.870;6.160;2024-01-11T02:29:54;20.38;;;7.05;;
4448;SDS011;2237;51.870;6.160;2024-01-11T02:32:20;20.05;;;7.70;;
4448;SDS011;2237;51.870;6.160;2024-01-11T02:34:48;18.85;;;6.93;;
4448;SDS011;2237;51.870;6.160;2024-01-11T02:37:14;22.85;;;7.43;;
4448;SDS011;2237;51.870;6.160;2024-01-11T02:39:41;22.48;;;8.38;;
4448;SDS011;2237;51.870;6.160;2024-01-11T02:42:07;22.33;;;7.82;;
4448;SDS011;2237;51.870;6.160;2024-01-11T02:44:34;18.73;;;6.85;;
4448;SDS011;2237;51.870;6.160;2024-01-11T02:47:00;18.40;;;6.72;;
4448;SDS011;2237;51.870;6.160;2024-01-11T02:49:26;16.38;;;6.72;;
4448;SDS011;2237;51.870;6.160;2024-01-11T02:51:53;18.35;;;6.93;;
4448;SDS011;2237;51.870;6.160;2024-01-11T02:54:19;19.92;;;7.05;;
4448;SDS011;2237;51.870;6.160;2024-01-11T02:56:45;20.33;;;7.25;;
4448;SDS011;2237;51.870;6.160;2024-01-11T02:59:12;18.73;;;7.10;;
4448;SDS011;2237;51.870;6.160;2024-01-11T03:01:38;18.85;;;7.05;;
4448;SDS011;2237;51.870;6.160;2024-01-11T03:04:05;20.75;;;7.45;;
4448;SDS011;2237;51.870;6.160;2024-01-11T03:06:31;20.95;;;7.15;;
4448;SDS011;2237;51.870;6.160;2024-01-11T03:08:58;24.27;;;7.70;;
4448;SDS011;2237;51.870;6.160;2024-01-11T03:11:24;18.80;;;6.78;;
4448;SDS011;2237;51.870;6.160;2024-01-11T03:13:50;18.50;;;6.03;;
4448;SDS011;2237;51.870;6.160;2024-01-11T03:16:17;17.92;;;6.57;;
4448;SDS011;2237;51.870;6.160;2024-01-11T03:18:43;16.27;;;6.43;;
4448;SDS011;2237;51.870;6.160;2024-01-11T03:21:09;16.80;;;7.13;;
4448;SDS011;2237;51.870;6.160;2024-01-11T03:23:36;16.73;;;6.53;;
4448;SDS011;2237;51.870;6.160;2024-01-11T03:26:02;14.43;;;6.72;;
4448;SDS011;2237;51.870;6.160;2024-01-11T03:28:29;17.83;;;6.50;;
4448;SDS011;2237;51.870;6.160;2024-01-11T03:30:55;16.88;;;6.47;;
4448;SDS011;2237;51.870;6.160;2024-01-11T03:33:22;17.10;;;6.18;;
4448;SDS011;2237;51.870;6.160;2024-01-11T03:35:48;18.83;;;6.15;;
4448;SDS011;2237;51.870;6.160;2024-01-11T03:38:15;16.20;;;6.07;;
4448;SDS011;2237;51.870;6.160;2024-01-11T03:40:41;18.85;;;6.18;;
4448;SDS011;2237;51.870;6.160;2024-01-11T03:43:07;16.85;;;6.07;;
4448;SDS011;2237;51.870;6.160;2024-01-11T03:45:34;17.15;;;6.13;;
4448;SDS011;2237;51.870;6.160;2024-01-11T03:48:00;15.57;;;5.95;;
4448;SDS011;2237;51.870;6.160;2024-01-11T03:50:26;15.98;;;5.35;;
4448;SDS011;2237;51.870;6.160;2024-01-11T03:52:53;23.55;;;7.57;;
4448;SDS011;2237;51.870;6.160;2024-01-11T03:55:19;14.98;;;5.65;;
4448;SDS011;2237;51.870;6.160;2024-01-11T03:57:46;16.10;;;6.25;;
4448;SDS011;2237;51.870;6.160;2024-01-11T04:00:13;16.30;;;6.15;;
4448;SDS011;2237;51.870;6.160;2024-01-11T04:02:39;18.67;;;6.45;;
4448;SDS011;2237;51.870;6.160;2024-01-11T04:05:06;17.48;;;6.63;;
4448;SDS011;2237;51.870;6.160;2024-01-11T04:07:32;17.08;;;5.68;;
4448;SDS011;2237;51.870;6.160;2024-01-11T04:09:58;17.33;;;6.22;;
4448;SDS011;2237;51.870;6.160;2024-01-11T04:12:25;20.95;;;6.80;;
4448;SDS011;2237;51.870;6.160;2024-01-11T04:14:51;13.10;;;5.43;;
4448;SDS011;2237;51.870;6.160;2024-01-11T04:17:17;13.57;;;5.65;;
4448;SDS011;2237;51.870;6.160;2024-01-11T04:19:44;18.73;;;6.90;;
4448;SDS011;2237;51.870;6.160;2024-01-11T04:22:10;14.50;;;5.55;;
4448;SDS011;2237;51.870;6.160;2024-01-11T04:24:36;16.33;;;5.93;;
4448;SDS011;2237;51.870;6.160;2024-01-11T04:27:03;16.23;;;6.50;;
4448;SDS011;2237;51.870;6.160;2024-01-11T04:29:29;17.50;;;6.05;;
4448;SDS011;2237;51.870;6.160;2024-01-11T04:31:56;16.02;;;6.45;;
4448;SDS011;2237;51.870;6.160;2024-01-11T04:34:22;14.57;;;4.80;;
4448;SDS011;2237;51.870;6.160;2024-01-11T04:36:48;18.73;;;6.13;;
4448;SDS011;2237;51.870;6.160;2024-01-11T04:39:15;16.98;;;6.50;;
4448;SDS011;2237;51.870;6.160;2024-01-11T04:41:41;22.98;;;5.95;;
4448;SDS011;2237;51.870;6.160;2024-01-11T04:44:07;14.32;;;5.82;;
4448;SDS011;2237;51.870;6.160;2024-01-11T04:46:34;17.02;;;6.47;;
4448;SDS011;2237;51.870;6.160;2024-01-11T04:49:00;14.63;;;5.15;;
4448;SDS011;2237;51.870;6.160;2024-01-11T04:51:27;16.50;;;5.95;;
4448;SDS011;2237;51.870;6.160;2024-01-11T04:53:53;15.20;;;6.10;;
4448;SDS011;2237;51.870;6.160;2024-01-11T04:56:20;18.55;;;6.35;;
4448;SDS011;2237;51.870;6.160;2024-01-11T04:58:46;17.88;;;6.28;;
4448;SDS011;2237;51.870;6.160;2024-01-11T05:01:13;16.17;;;5.22;;
4448;SDS011;2237;51.870;6.160;2024-01-11T05:03:40;16.05;;;5.97;;
4448;SDS011;2237;51.870;6.160;2024-01-11T05:06:07;17.90;;;5.90;;
4448;SDS011;2237;51.870;6.160;2024-01-11T05:08:33;18.98;;;6.47;;
4448;SDS011;2237;51.870;6.160;2024-01-11T05:11:00;19.85;;;6.18;;
4448;SDS011;2237;51.870;6.160;2024-01-11T05:13:26;13.73;;;5.10;;
4448;SDS011;2237;51.870;6.160;2024-01-11T05:15:52;16.77;;;6.13;;
4448;SDS011;2237;51.870;6.160;2024-01-11T05:18:19;20.48;;;6.10;;
4448;SDS011;2237;51.870;6.160;2024-01-11T05:20:45;19.58;;;6.65;;
4448;SDS011;2237;51.870;6.160;2024-01-11T05:23:11;16.65;;;5.68;;
4448;SDS011;2237;51.870;6.160;2024-01-11T05:25:38;15.15;;;5.60;;
4448;SDS011;2237;51.870;6.160;2024-01-11T05:28:04;18.48;;;5.90;;
4448;SDS011;2237;51.870;6.160;2024-01-11T05:30:30;19.60;;;6.22;;
4448;SDS011;2237;51.870;6.160;2024-01-11T05:32:57;15.68;;;5.68;;
4448;SDS011;2237;51.870;6.160;2024-01-11T05:35:24;13.18;;;5.32;;
4448;SDS011;2237;51.870;6.160;2024-01-11T05:37:53;18.45;;;6.68;;
4448;SDS011;2237;51.870;6.160;2024-01-11T05:40:21;17.23;;;6.40;;
4448;SDS011;2237;51.870;6.160;2024-01-11T05:42:47;16.33;;;6.63;;
4448;SDS011;2237;51.870;6.160;2024-01-11T05:45:14;18.65;;;6.30;;
4448;SDS011;2237;51.870;6.160;2024-01-11T05:47:46;18.85;;;6.40;;
4448;SDS011;2237;51.870;6.160;2024-01-11T05:50:13;19.38;;;6.30;;
4448;SDS011;2237;51.870;6.160;2024-01-11T05:52:40;16.83;;;6.25;;
4448;SDS011;2237;51.870;6.160;2024-01-11T05:55:06;17.98;;;6.53;;
4448;SDS011;2237;51.870;6.160;2024-01-11T05:57:32;16.77;;;6.25;;
4448;SDS011;2237;51.870;6.160;2024-01-11T05:59:58;20.27;;;6.53;;
4448;SDS011;2237;51.870;6.160;2024-01-11T06:02:25;14.40;;;5.70;;
4448;SDS011;2237;51.870;6.160;2024-01-11T06:04:52;17.70;;;5.85;;
4448;SDS011;2237;51.870;6.160;2024-01-11T06:07:18;18.92;;;6.75;;
4448;SDS011;2237;51.870;6.160;2024-01-11T06:09:45;18.80;;;7.50;;
4448;SDS011;2237;51.870;6.160;2024-01-11T06:12:12;16.80;;;6.72;;
4448;SDS011;2237;51.870;6.160;2024-01-11T06:14:39;19.00;;;6.93;;
4448;SDS011;2237;51.870;6.160;2024-01-11T06:17:05;18.80;;;6.65;;
4448;SDS011;2237;51.870;6.160;2024-01-11T06:19:32;21.17;;;7.10;;
4448;SDS011;2237;51.870;6.160;2024-01-11T06:21:58;18.23;;;6.85;;
4448;SDS011;2237;51.870;6.160;2024-01-11T06:24:25;18.02;;;6.88;;
4448;SDS011;2237;51.870;6.160;2024-01-11T06:26:51;21.63;;;7.35;;
4448;SDS011;2237;51.870;6.160;2024-01-11T06:29:17;15.02;;;5.60;;
4448;SDS011;2237;51.870;6.160;2024-01-11T06:31:44;21.25;;;7.80;;
4448;SDS011;2237;51.870;6.160;2024-01-11T06:34:11;12.55;;;5.10;;
4448;SDS011;2237;51.870;6.160;2024-01-11T06:36:37;13.02;;;5.72;;
4448;SDS011;2237;51.870;6.160;2024-01-11T06:39:03;13.50;;;2.67;;
4448;SDS011;2237;51.870;6.160;2024-01-11T06:41:30;12.55;;;4.43;;
4448;SDS011;2237;51.870;6.160;2024-01-11T06:43:56;17.73;;;6.20;;
4448;SDS011;2237;51.870;6.160;2024-01-11T06:46:26;18.98;;;6.20;;
4448;SDS011;2237;51.870;6.160;2024-01-11T06:48:53;13.75;;;6.00;;
4448;SDS011;2237;51.870;6.160;2024-01-11T06:51:22;14.80;;;5.45;;
4448;SDS011;2237;51.870;6.160;2024-01-11T06:53:49;21.60;;;6.57;;
4448;SDS011;2237;51.870;6.160;2024-01-11T06:56:19;17.27;;;5.65;;
4448;SDS011;2237;51.870;6.160;2024-01-11T06:58:46;19.77;;;7.32;;
4448;SDS011;2237;51.870;6.160;2024-01-11T07:01:12;21.63;;;7.05;;
4448;SDS011;2237;51.870;6.160;2024-01-11T07:03:39;16.60;;;5.85;;
4448;SDS011;2237;51.870;6.160;2024-01-11T07:06:05;17.08;;;6.90;;
4448;SDS011;2237;51.870;6.160;2024-01-11T07:08:32;16.35;;;5.82;;
4448;SDS011;2237;51.870;6.160;2024-01-11T07:11:01;17.75;;;7.00;;
4448;SDS011;2237;51.870;6.160;2024-01-11T07:13:31;16.77;;;6.82;;
4448;SDS011;2237;51.870;6.160;2024-01-11T07:15:58;17.75;;;6.57;;
4448;SDS011;2237;51.870;6.160;2024-01-11T07:18:24;17.23;;;6.90;;
4448;SDS011;2237;51.870;6.160;2024-01-11T07:20:52;19.23;;;7.10;;
4448;SDS011;2237;51.870;6.160;2024-01-11T07:23:18;17.73;;;7.10;;
4448;SDS011;2237;51.870;6.160;2024-01-11T07:25:45;19.55;;;7.10;;
4448;SDS011;2237;51.870;6.160;2024-01-11T07:28:11;23.13;;;7.80;;
4448;SDS011;2237;51.870;6.160;2024-01-11T07:30:37;20.63;;;7.53;;
4448;SDS011;2237;51.870;6.160;2024-01-11T07:33:04;21.05;;;7.32;;
4448;SDS011;2237;51.870;6.160;2024-01-11T07:35:31;20.15;;;6.95;;
4448;SDS011;2237;51.870;6.160;2024-01-11T07:37:57;20.30;;;7.35;;
4448;SDS011;2237;51.870;6.160;2024-01-11T07:40:24;20.65;;;7.57;;
4448;SDS011;2237;51.870;6.160;2024-01-11T07:42:50;17.52;;;7.57;;
4448;SDS011;2237;51.870;6.160;2024-01-11T07:45:16;21.17;;;7.18;;
4448;SDS011;2237;51.870;6.160;2024-01-11T07:47:43;22.38;;;7.30;;
4448;SDS011;2237;51.870;6.160;2024-01-11T07:50:09;19.13;;;7.20;;
4448;SDS011;2237;51.870;6.160;2024-01-11T07:52:36;21.98;;;7.28;;
4448;SDS011;2237;51.870;6.160;2024-01-11T07:55:08;22.92;;;8.27;;
4448;SDS011;2237;51.870;6.160;2024-01-11T07:57:39;21.27;;;7.95;;
4448;SDS011;2237;51.870;6.160;2024-01-11T08:00:06;22.88;;;7.43;;
4448;SDS011;2237;51.870;6.160;2024-01-11T08:02:35;19.83;;;7.57;;
4448;SDS011;2237;51.870;6.160;2024-01-11T08:05:02;20.65;;;7.72;;
4448;SDS011;2237;51.870;6.160;2024-01-11T08:07:28;22.73;;;7.32;;
4448;SDS011;2237;51.870;6.160;2024-01-11T08:09:55;21.08;;;7.35;;
4448;SDS011;2237;51.870;6.160;2024-01-11T08:12:22;22.38;;;8.35;;
4448;SDS011;2237;51.870;6.160;2024-01-11T08:14:48;23.02;;;8.27;;
4448;SDS011;2237;51.870;6.160;2024-01-11T08:17:15;18.15;;;7.60;;
4448;SDS011;2237;51.870;6.160;2024-01-11T08:19:42;21.77;;;7.55;;
4448;SDS011;2237;51.870;6.160;2024-01-11T08:22:11;23.48;;;7.25;;
4448;SDS011;2237;51.870;6.160;2024-01-11T08:24:37;19.95;;;7.78;;
4448;SDS011;2237;51.870;6.160;2024-01-11T08:27:04;12.52;;;4.63;;
4448;SDS011;2237;51.870;6.160;2024-01-11T08:29:30;21.42;;;7.70;;
4448;SDS011;2237;51.870;6.160;2024-01-11T08:31:57;24.83;;;7.97;;
4448;SDS011;2237;51.870;6.160;2024-01-11T08:34:24;17.65;;;6.90;;
4448;SDS011;2237;51.870;6.160;2024-01-11T08:36:53;18.80;;;7.22;;
4448;SDS011;2237;51.870;6.160;2024-01-11T08:39:19;22.60;;;7.20;;
4448;SDS011;2237;51.870;6.160;2024-01-11T08:41:47;21.25;;;7.68;;
4448;SDS011;2237;51.870;6.160;2024-01-11T08:44:14;19.67;;;6.75;;
4448;SDS011;2237;51.870;6.160;2024-01-11T08:46:40;27.17;;;9.60;;
4448;SDS011;2237;51.870;6.160;2024-01-11T08:49:06;20.33;;;7.68;;
4448;SDS011;2237;51.870;6.160;2024-01-11T08:51:33;22.17;;;7.50;;
4448;SDS011;2237;51.870;6.160;2024-01-11T08:53:59;17.92;;;7.57;;
4448;SDS011;2237;51.870;6.160;2024-01-11T08:56:26;20.83;;;8.30;;
4448;SDS011;2237;51.870;6.160;2024-01-11T08:58:52;30.33;;;9.50;;
4448;SDS011;2237;51.870;6.160;2024-01-11T09:01:18;21.20;;;7.28;;
4448;SDS011;2237;51.870;6.160;2024-01-11T09:03:45;33.88;;;10.82;;
4448;SDS011;2237;51.870;6.160;2024-01-11T09:06:14;22.55;;;8.48;;
4448;SDS011;2237;51.870;6.160;2024-01-11T09:08:40;24.58;;;9.07;;
4448;SDS011;2237;51.870;6.160;2024-01-11T09:11:08;23.08;;;8.73;;
4448;SDS011;2237;51.870;6.160;2024-01-11T09:13:36;25.25;;;9.35;;
4448;SDS011;2237;51.870;6.160;2024-01-11T09:16:03;26.33;;;9.02;;
4448;SDS011;2237;51.870;6.160;2024-01-11T09:18:29;20.95;;;8.75;;
4448;SDS011;2237;51.870;6.160;2024-01-11T09:20:55;25.85;;;9.52;;
4448;SDS011;2237;51.870;6.160;2024-01-11T09:23:22;25.35;;;9.68;;
4448;SDS011;2237;51.870;6.160;2024-01-11T09:25:48;23.20;;;8.40;;
4448;SDS011;2237;51.870;6.160;2024-01-11T09:28:15;17.77;;;7.18;;
4448;SDS011;2237;51.870;6.160;2024-01-11T09:30:41;29.55;;;10.05;;
4448;SDS011;2237;51.870;6.160;2024-01-11T09:33:07;25.13;;;9.73;;
4448;SDS011;2237;51.870;6.160;2024-01-11T09:35:34;22.80;;;8.55;;
4448;SDS011;2237;51.870;6.160;2024-01-11T09:38:00;26.75;;;9.90;;
4448;SDS011;2237;51.870;6.160;2024-01-11T09:40:27;31.40;;;10.60;;
4448;SDS011;2237;51.870;6.160;2024-01-11T09:42:53;24.08;;;8.57;;
4448;SDS011;2237;51.870;6.160;2024-01-11T09:45:19;25.85;;;8.73;;
4448;SDS011;2237;51.870;6.160;2024-01-11T09:47:46;28.95;;;9.85;;
4448;SDS011;2237;51.870;6.160;2024-01-11T09:50:15;28.92;;;10.45;;
4448;SDS011;2237;51.870;6.160;2024-01-11T09:52:47;22.52;;;9.55;;
4448;SDS011;2237;51.870;6.160;2024-01-11T09:55:17;28.33;;;10.80;;
4448;SDS011;2237;51.870;6.160;2024-01-11T09:57:44;30.60;;;9.63;;
4448;SDS011;2237;51.870;6.160;2024-01-11T10:00:16;25.30;;;9.23;;
4448;SDS011;2237;51.870;6.160;2024-01-11T10:02:43;29.30;;;10.10;;
4448;SDS011;2237;51.870;6.160;2024-01-11T10:05:09;27.80;;;10.80;;
4448;SDS011;2237;51.870;6.160;2024-01-11T10:07:37;30.75;;;11.30;;
4448;SDS011;2237;51.870;6.160;2024-01-11T10:10:04;32.00;;;11.27;;
4448;SDS011;2237;51.870;6.160;2024-01-11T10:12:30;33.30;;;11.00;;
4448;SDS011;2237;51.870;6.160;2024-01-11T10:15:03;26.70;;;10.45;;
4448;SDS011;2237;51.870;6.160;2024-01-11T10:17:30;27.88;;;10.57;;
4448;SDS011;2237;51.870;6.160;2024-01-11T10:19:57;26.08;;;10.40;;
4448;SDS011;2237;51.870;6.160;2024-01-11T10:22:25;28.75;;;10.63;;
4448;SDS011;2237;51.870;6.160;2024-01-11T10:25:07;27.23;;;10.13;;
4448;SDS011;2237;51.870;6.160;2024-01-11T10:27:34;30.35;;;10.35;;
4448;SDS011;2237;51.870;6.160;2024-01-11T10:30:00;26.08;;;10.18;;
4448;SDS011;2237;51.870;6.160;2024-01-11T10:32:28;22.23;;;8.27;;
4448;SDS011;2237;51.870;6.160;2024-01-11T10:34:54;22.98;;;9.32;;
4448;SDS011;2237;51.870;6.160;2024-01-11T10:37:21;17.75;;;7.55;;
4448;SDS011;2237;51.870;6.160;2024-01-11T10:39:47;27.48;;;11.02;;
4448;SDS011;2237;51.870;6.160;2024-01-11T10:42:14;24.45;;;9.25;;
4448;SDS011;2237;51.870;6.160;2024-01-11T10:44:43;18.40;;;8.02;;
4448;SDS011;2237;51.870;6.160;2024-01-11T10:47:12;23.20;;;9.32;;
4448;SDS011;2237;51.870;6.160;2024-01-11T10:49:39;28.95;;;10.60;;
4448;SDS011;2237;51.870;6.160;2024-01-11T10:52:07;29.50;;;10.60;;
4448;SDS011;2237;51.870;6.160;2024-01-11T10:54:34;28.77;;;8.73;;
4448;SDS011;2237;51.870;6.160;2024-01-11T10:57:00;28.25;;;10.32;;
4448;SDS011;2237;51.870;6.160;2024-01-11T10:59:27;26.38;;;10.00;;
4448;SDS011;2237;51.870;6.160;2024-01-11T11:01:53;32.45;;;10.27;;
4448;SDS011;2237;51.870;6.160;2024-01-11T11:04:22;26.27;;;10.60;;
4448;SDS011;2237;51.870;6.160;2024-01-11T11:06:55;22.75;;;9.25;;
4448;SDS011;2237;51.870;6.160;2024-01-11T11:09:23;27.52;;;9.90;;
4448;SDS011;2237;51.870;6.160;2024-01-11T11:11:50;28.38;;;9.40;;
4448;SDS011;2237;51.870;6.160;2024-01-11T11:14:19;30.95;;;10.82;;
4448;SDS011;2237;51.870;6.160;2024-01-11T11:16:47;29.65;;;11.35;;
4448;SDS011;2237;51.870;6.160;2024-01-11T11:19:13;30.50;;;10.20;;
4448;SDS011;2237;51.870;6.160;2024-01-11T11:21:43;25.67;;;9.63;;
4448;SDS011;2237;51.870;6.160;2024-01-11T11:24:11;25.23;;;9.88;;
4448;SDS011;2237;51.870;6.160;2024-01-11T11:26:37;25.40;;;10.25;;
4448;SDS011;2237;51.870;6.160;2024-01-11T11:29:04;21.88;;;8.45;;
4448;SDS011;2237;51.870;6.160;2024-01-11T11:31:43;21.85;;;8.80;;
4448;SDS011;2237;51.870;6.160;2024-01-11T11:34:12;24.08;;;9.25;;
4448;SDS011;2237;51.870;6.160;2024-01-11T11:36:41;24.25;;;8.65;;
4448;SDS011;2237;51.870;6.160;2024-01-11T11:39:09;21.98;;;7.47;;
4448;SDS011;2237;51.870;6.160;2024-01-11T11:41:37;23.00;;;7.57;;
4448;SDS011;2237;51.870;6.160;2024-01-11T11:44:05;19.75;;;7.45;;
4448;SDS011;2237;51.870;6.160;2024-01-11T11:46:32;15.70;;;6.25;;
4448;SDS011;2237;51.870;6.160;2024-01-11T11:48:59;17.20;;;5.68;;
4448;SDS011;2237;51.870;6.160;2024-01-11T11:51:26;10.43;;;3.45;;
4448;SDS011;2237;51.870;6.160;2024-01-11T11:53:54;10.60;;;4.07;;
4448;SDS011;2237;51.870;6.160;2024-01-11T11:56:22;15.23;;;4.47;;
4448;SDS011;2237;51.870;6.160;2024-01-11T11:58:48;14.82;;;4.60;;
4448;SDS011;2237;51.870;6.160;2024-01-11T12:01:18;15.20;;;4.77;;
4448;SDS011;2237;51.870;6.160;2024-01-11T12:03:45;15.75;;;4.47;;
4448;SDS011;2237;51.870;6.160;2024-01-11T12:06:16;16.58;;;5.00;;
4448;SDS011;2237;51.870;6.160;2024-01-11T12:08:43;13.45;;;4.90;;
4448;SDS011;2237;51.870;6.160;2024-01-11T12:11:12;12.80;;;4.32;;
4448;SDS011;2237;51.870;6.160;2024-01-11T12:13:39;11.02;;;3.53;;
4448;SDS011;2237;51.870;6.160;2024-01-11T12:16:05;10.82;;;3.75;;
4448;SDS011;2237;51.870;6.160;2024-01-11T12:18:32;15.55;;;4.35;;
4448;SDS011;2237;51.870;6.160;2024-01-11T12:20:58;14.55;;;4.50;;
4448;SDS011;2237;51.870;6.160;2024-01-11T12:23:25;12.52;;;4.60;;
4448;SDS011;2237;51.870;6.160;2024-01-11T12:28:22;18.67;;;5.40;;
4448;SDS011;2237;51.870;6.160;2024-01-11T12:30:49;12.85;;;4.53;;
4448;SDS011;2237;51.870;6.160;2024-01-11T12:33:15;14.32;;;4.80;;
4448;SDS011;2237;51.870;6.160;2024-01-11T12:35:42;12.32;;;4.32;;
4448;SDS011;2237;51.870;6.160;2024-01-11T12:38:08;16.45;;;5.07;;
4448;SDS011;2237;51.870;6.160;2024-01-11T12:40:38;20.25;;;5.20;;
4448;SDS011;2237;51.870;6.160;2024-01-11T12:43:04;18.90;;;5.20;;
4448;SDS011;2237;51.870;6.160;2024-01-11T12:45:31;16.00;;;5.47;;
4448;SDS011;2237;51.870;6.160;2024-01-11T12:47:59;19.75;;;5.28;;
4448;SDS011;2237;51.870;6.160;2024-01-11T12:50:29;12.15;;;3.58;;
4448;SDS011;2237;51.870;6.160;2024-01-11T12:55:30;20.60;;;6.65;;
4448;SDS011;2237;51.870;6.160;2024-01-11T12:58:04;20.15;;;5.13;;
4448;SDS011;2237;51.870;6.160;2024-01-11T13:00:30;16.55;;;4.78;;
4448;SDS011;2237;51.870;6.160;2024-01-11T13:02:57;19.70;;;5.95;;
4448;SDS011;2237;51.870;6.160;2024-01-11T13:05:23;18.95;;;5.57;;
4448;SDS011;2237;51.870;6.160;2024-01-11T13:07:50;16.73;;;5.45;;
4448;SDS011;2237;51.870;6.160;2024-01-11T13:10:16;20.13;;;6.07;;
4448;SDS011;2237;51.870;6.160;2024-01-11T13:12:43;18.55;;;5.68;;
4448;SDS011;2237;51.870;6.160;2024-01-11T13:15:16;18.52;;;5.30;;
4448;SDS011;2237;51.870;6.160;2024-01-11T13:17:42;18.98;;;4.95;;
4448;SDS011;2237;51.870;6.160;2024-01-11T13:20:09;19.80;;;5.72;;
4448;SDS011;2237;51.870;6.160;2024-01-11T13:22:35;19.90;;;5.13;;
4448;SDS011;2237;51.870;6.160;2024-01-11T13:25:01;18.20;;;5.03;;
4448;SDS011;2237;51.870;6.160;2024-01-11T13:27:28;18.98;;;5.63;;
4448;SDS011;2237;51.870;6.160;2024-01-11T13:29:54;18.80;;;4.72;;
4448;SDS011;2237;51.870;6.160;2024-01-11T13:32:21;16.60;;;5.00;;
4448;SDS011;2237;51.870;6.160;2024-01-11T13:34:48;11.93;;;4.25;;
4448;SDS011;2237;51.870;6.160;2024-01-11T13:37:14;15.75;;;5.13;;
4448;SDS011;2237;51.870;6.160;2024-01-11T13:39:41;18.40;;;5.38;;
4448;SDS011;2237;51.870;6.160;2024-01-11T13:42:07;13.35;;;4.22;;
4448;SDS011;2237;51.870;6.160;2024-01-11T13:44:35;15.90;;;4.97;;
4448;SDS011;2237;51.870;6.160;2024-01-11T13:47:02;17.42;;;5.10;;
4448;SDS011;2237;51.870;6.160;2024-01-11T13:49:29;17.17;;;5.28;;
4448;SDS011;2237;51.870;6.160;2024-01-11T13:51:56;18.13;;;4.97;;
4448;SDS011;2237;51.870;6.160;2024-01-11T13:56:53;18.92;;;5.45;;
4448;SDS011;2237;51.870;6.160;2024-01-11T13:59:20;18.88;;;5.95;;
4448;SDS011;2237;51.870;6.160;2024-01-11T14:01:46;18.75;;;5.97;;
4448;SDS011;2237;51.870;6.160;2024-01-11T14:04:13;16.48;;;5.18;;
4448;SDS011;2237;51.870;6.160;2024-01-11T14:06:39;17.33;;;4.80;;
4448;SDS011;2237;51.870;6.160;2024-01-11T14:09:06;19.42;;;5.18;;
4448;SDS011;2237;51.870;6.160;2024-01-11T14:11:35;18.23;;;5.82;;
4448;SDS011;2237;51.870;6.160;2024-01-11T14:14:02;21.17;;;6.55;;
4448;SDS011;2237;51.870;6.160;2024-01-11T14:16:28;18.77;;;5.68;;
4448;SDS011;2237;51.870;6.160;2024-01-11T14:18:54;17.50;;;4.95;;
4448;SDS011;2237;51.870;6.160;2024-01-11T14:21:21;19.60;;;5.70;;
4448;SDS011;2237;51.870;6.160;2024-01-11T14:23:47;19.08;;;5.65;;
4448;SDS011;2237;51.870;6.160;2024-01-11T14:26:14;18.88;;;5.30;;
4448;SDS011;2237;51.870;6.160;2024-01-11T14:28:40;17.70;;;5.78;;
4448;SDS011;2237;51.870;6.160;2024-01-11T14:31:09;17.73;;;5.25;;
4448;SDS011;2237;51.870;6.160;2024-01-11T14:33:36;18.90;;;6.13;;
4448;SDS011;2237;51.870;6.160;2024-01-11T14:36:03;26.58;;;6.70;;
4448;SDS011;2237;51.870;6.160;2024-01-11T14:38:29;21.75;;;6.28;;
4448;SDS011;2237;51.870;6.160;2024-01-11T14:40:56;22.42;;;5.93;;
4448;SDS011;2237;51.870;6.160;2024-01-11T14:43:22;24.10;;;6.32;;
4448;SDS011;2237;51.870;6.160;2024-01-11T14:45:49;17.17;;;6.03;;
4448;SDS011;2237;51.870;6.160;2024-01-11T14:48:17;23.00;;;6.93;;
4448;SDS011;2237;51.870;6.160;2024-01-11T14:50:43;18.88;;;5.78;;
4448;SDS011;2237;51.870;6.160;2024-01-11T14:53:10;23.17;;;6.55;;
4448;SDS011;2237;51.870;6.160;2024-01-11T14:55:36;27.25;;;6.18;;
4448;SDS011;2237;51.870;6.160;2024-01-11T14:58:03;23.92;;;7.57;;
4448;SDS011;2237;51.870;6.160;2024-01-11T15:00:31;23.38;;;6.57;;
4448;SDS011;2237;51.870;6.160;2024-01-11T15:02:57;22.15;;;6.70;;
4448;SDS011;2237;51.870;6.160;2024-01-11T15:05:23;25.38;;;5.43;;